Time;durP1;ratioP1;P1;durP2;ratioP2;P2;SDS_P1;SDS_P2;PMS_P1;PMS_P2;Temp;Humidity;BMP_temperature;BMP_pressure;BME280_temperature;BME280_humidity;BME280_pressure;Samples;Min_cycle;Max_cycle;Signal;HPM_P1;HPM_P2
2022/05/03 00:08:44;;;;;;;11.65;5.55;;;;;;;13.00;65.67;100381.47;18430266;32;20101;-63
2022/05/03 00:18:48;;;;;;;11.85;5.20;;;;;;;13.02;66.15;100373.59;18429711;32;20101;-63
2022/05/03 00:28:53;;;;;;;10.63;5.25;;;;;;;13.32;65.70;100376.69;18436169;32;20117;-63
2022/05/03 00:38:56;;;;;;;10.23;4.78;;;;;;;12.92;67.69;100361.50;18437028;32;20142;-63
2022/05/03 00:49:20;;;;;;;11.18;5.50;;;;;;;13.18;66.28;100358.53;18436953;32;20137;-63
2022/05/03 00:59:50;;;;;;;11.07;5.80;;;;;;;12.85;67.85;100356.34;18437166;32;20111;-63
2022/05/03 01:10:06;;;;;;;11.82;5.50;;;;;;;12.84;66.91;100358.97;18436293;32;20347;-63
2022/05/03 01:20:10;;;;;;;12.27;5.55;;;;;;;13.01;66.30;100358.78;18436884;32;20129;-63
2022/05/03 01:30:15;;;;;;;13.27;5.70;;;;;;;12.16;68.86;100350.97;18435552;32;20096;-63
2022/05/03 01:40:24;;;;;;;13.18;5.70;;;;;;;12.33;68.89;100369.13;18435009;32;20097;-63
2022/05/03 01:50:39;;;;;;;14.15;5.95;;;;;;;12.38;68.41;100365.59;18436049;32;20384;-63
2022/05/03 02:00:45;;;;;;;10.65;5.37;;;;;;;12.03;69.65;100365.91;18434559;32;20096;-63
2022/05/03 02:11:04;;;;;;;10.43;4.85;;;;;;;12.21;68.75;100358.78;18434520;32;20103;-63
2022/05/03 02:21:17;;;;;;;10.00;5.10;;;;;;;11.60;69.91;100355.78;18433842;32;20483;-63
2022/05/03 02:31:28;;;;;;;13.05;5.45;;;;;;;11.83;69.07;100362.56;18433642;32;20112;-63
2022/05/03 02:41:34;;;;;;;11.27;5.68;;;;;;;11.60;69.91;100356.63;18434133;32;20093;-63
2022/05/03 02:51:41;;;;;;;9.73;4.78;;;;;;;12.35;66.35;100364.75;18432821;32;20106;-63
2022/05/03 03:02:02;;;;;;;9.48;5.00;;;;;;;11.52;70.36;100374.97;18432680;32;20097;-63
2022/05/03 03:12:20;;;;;;;9.63;4.95;;;;;;;11.08;71.83;100370.88;18432635;32;20089;-63
2022/05/03 03:22:25;;;;;;;13.02;4.93;;;;;;;11.34;71.40;100373.38;18432226;32;20347;-63
2022/05/03 03:32:29;;;;;;;10.07;4.40;;;;;;;11.23;71.76;100372.53;18418797;32;20182;-63
2022/05/03 03:42:33;;;;;;;9.25;4.43;;;;;;;11.21;70.42;100376.91;18431568;32;20100;-63
2022/05/03 03:52:39;;;;;;;8.40;4.65;;;;;;;10.81;72.16;100381.44;18431207;32;20172;-63
2022/05/03 04:02:44;;;;;;;10.00;5.00;;;;;;;10.61;72.87;100393.69;18430231;32;20461;-63
2022/05/03 04:12:49;;;;;;;10.20;5.12;;;;;;;11.04;71.53;100395.28;18430037;32;20107;-63
2022/05/03 04:22:53;;;;;;;9.57;4.55;;;;;;;11.08;72.62;100397.00;18429313;32;20108;-63
2022/05/03 04:32:57;;;;;;;10.55;4.57;;;;;;;11.81;69.29;100409.66;18429248;32;20133;-63
2022/05/03 04:43:00;;;;;;;11.95;5.12;;;;;;;11.71;71.69;100416.69;18428348;32;20093;-63
2022/05/03 04:53:05;;;;;;;9.77;4.40;;;;;;;12.86;67.75;100407.84;18428053;32;20115;-63
2022/05/03 05:03:08;;;;;;;9.13;4.55;;;;;;;13.29;66.21;100408.22;18426973;32;20433;-63
2022/05/03 05:13:13;;;;;;;7.28;4.30;;;;;;;13.88;64.07;100405.59;18433460;32;20093;-64
2022/05/03 05:23:16;;;;;;;9.13;4.32;;;;;;;14.55;62.35;100403.59;18437097;32;20389;-64
2022/05/03 05:33:24;;;;;;;9.88;4.03;;;;;;;15.22;60.64;100394.44;18435482;32;20643;-64
2022/05/03 05:43:28;;;;;;;8.88;4.10;;;;;;;16.46;57.72;100396.75;18427768;32;20150;-64
2022/05/03 05:53:32;;;;;;;11.35;4.50;;;;;;;16.88;56.04;100394.72;18429688;32;20121;-65
2022/05/03 06:03:36;;;;;;;7.65;3.80;;;;;;;17.44;53.54;100379.94;18425754;32;20506;-64
2022/05/03 06:13:41;;;;;;;10.02;3.78;;;;;;;17.39;53.52;100390.63;18417079;32;20194;-64
2022/05/03 06:23:44;;;;;;;6.47;3.15;;;;;;;18.41;50.08;100378.56;18431131;32;20523;-64
2022/05/03 06:33:49;;;;;;;8.73;3.40;;;;;;;19.59;46.03;100377.72;18429737;32;20190;-66
2022/05/03 06:43:52;;;;;;;8.35;3.65;;;;;;;20.08;45.22;100390.78;18431389;32;20366;-66
2022/05/03 06:53:57;;;;;;;7.62;3.42;;;;;;;19.94;46.79;100389.53;18431920;32;20092;-66
2022/05/03 07:04:00;;;;;;;6.60;3.22;;;;;;;19.28;47.44;100390.38;18430948;32;20142;-66
2022/05/03 07:14:04;;;;;;;8.07;3.00;;;;;;;21.81;43.09;100381.22;18395715;32;20096;-66
2022/05/03 07:24:08;;;;;;;7.35;2.90;;;;;;;25.36;33.77;100366.56;18431388;32;20093;-66
2022/05/03 07:34:13;;;;;;;4.47;2.40;;;;;;;26.43;31.12;100362.13;18430018;32;20144;-66
2022/05/03 07:44:16;;;;;;;5.87;2.30;;;;;;;25.29;28.79;100365.25;18428615;32;20097;-67
2022/05/03 07:54:21;;;;;;;4.85;2.20;;;;;;;24.89;29.40;100360.66;18428686;32;20089;-67
2022/05/03 08:04:28;;;;;;;5.97;2.70;;;;;;;24.27;31.32;100367.94;18429688;32;20144;-66
2022/05/03 08:14:34;;;;;;;5.37;2.33;;;;;;;24.45;32.04;100371.28;18427521;32;20138;-66
2022/05/03 08:24:37;;;;;;;3.78;1.87;;;;;;;24.58;32.59;100365.22;18427561;32;20112;-66
2022/05/03 08:34:41;;;;;;;2.87;1.70;;;;;;;24.36;31.05;100370.06;18426334;32;20093;-66
2022/05/03 08:44:44;;;;;;;3.37;1.80;;;;;;;23.91;31.73;100361.16;18428191;32;20093;-66
2022/05/03 08:54:50;;;;;;;3.83;1.48;;;;;;;24.95;33.32;100368.28;18420500;32;20111;-66
2022/05/03 09:04:53;;;;;;;2.90;1.50;;;;;;;24.82;29.42;100352.19;18418388;32;20831;-66
2022/05/03 09:14:59;;;;;;;3.50;1.65;;;;;;;24.56;30.79;100356.44;18432199;32;20108;-67
2022/05/03 09:25:04;;;;;;;3.25;1.42;;;;;;;25.56;27.42;100346.56;18432994;32;20146;-66
2022/05/03 09:35:32;;;;;;;3.67;1.40;;;;;;;25.57;26.91;100342.94;18365292;32;20115;-67
2022/05/03 09:45:36;;;;;;;2.78;1.40;;;;;;;26.20;25.30;100342.34;18416778;32;20088;-67
2022/05/03 09:55:41;;;;;;;3.22;1.60;;;;;;;26.49;24.44;100338.59;18432100;32;20115;-66
2022/05/03 10:05:46;;;;;;;2.42;1.30;;;;;;;26.55;24.66;100332.78;18432421;32;20438;-67
2022/05/03 10:26:15;;;;;;;2.37;1.37;;;;;;;26.34;26.17;100324.50;18417084;32;20099;-67
2022/05/03 10:36:42;;;;;;;2.05;1.23;;;;;;;25.98;24.50;100308.16;18430079;32;20382;-65
2022/05/03 10:46:51;;;;;;;2.05;1.23;;;;;;;26.18;22.93;100301.44;18430121;32;20107;-67
2022/05/03 10:57:07;;;;;;;2.50;1.62;;;;;;;26.19;23.59;100281.75;18430212;32;20142;-66
2022/05/03 11:07:11;;;;;;;3.42;1.92;;;;;;;26.49;24.39;100277.06;18429125;32;20131;-67
2022/05/03 11:17:15;;;;;;;2.45;1.40;;;;;;;26.71;25.61;100262.97;18428868;32;20077;-66
2022/05/03 11:27:19;;;;;;;2.30;1.37;;;;;;;26.54;24.81;100262.38;18428854;32;20119;-67
2022/05/03 11:37:24;;;;;;;2.45;1.60;;;;;;;26.55;24.24;100255.19;18428270;32;20092;-66
2022/05/03 11:47:27;;;;;;;2.70;1.40;;;;;;;26.49;25.33;100247.63;18427629;32;20096;-67
2022/05/03 11:57:34;;;;;;;2.75;1.50;;;;;;;26.74;23.38;100239.47;18379820;32;20156;-67
2022/05/03 12:07:38;;;;;;;3.25;1.58;;;;;;;26.77;22.12;100235.72;18364679;32;20093;-66
2022/05/03 12:17:58;;;;;;;5.65;1.60;;;;;;;26.72;23.69;100228.03;18361238;32;20381;-66
2022/05/03 12:28:04;;;;;;;3.12;1.40;;;;;;;27.21;21.34;100225.38;18362738;32;20129;-66
2022/05/03 12:38:10;;;;;;;4.20;1.83;;;;;;;27.24;20.39;100226.97;18389376;32;20469;-66
2022/05/03 12:48:14;;;;;;;3.62;1.60;;;;;;;25.00;27.60;100263.87;18423659;32;20093;-66
2022/05/03 12:58:26;;;;;;;3.37;1.50;;;;;;;23.73;30.15;100276.00;18424182;32;20370;-68
2022/05/03 13:08:31;;;;;;;4.65;2.00;;;;;;;21.05;41.27;100281.28;18410995;32;20528;-65
2022/05/03 13:18:35;;;;;;;3.05;2.22;;;;;;;19.75;50.02;100256.12;18381292;32;20481;-66
2022/05/03 13:28:59;;;;;;;4.00;1.65;;;;;;;20.21;44.46;100242.72;18361402;32;20107;-66
2022/05/03 13:49:30;;;;;;;4.30;1.58;;;;;;;24.17;33.60;100230.78;18390816;32;20121;-69
2022/05/03 13:59:34;;;;;;;3.17;1.70;;;;;;;24.81;29.96;100227.69;18354814;32;20105;-69
2022/05/03 14:09:38;;;;;;;2.53;1.40;;;;;;;25.55;27.85;100205.91;18367114;32;20423;-69
2022/05/03 14:19:43;;;;;;;2.90;1.67;;;;;;;24.78;26.00;100218.06;18374512;32;20089;-69
2022/05/03 14:29:46;;;;;;;5.28;1.90;;;;;;;24.85;26.42;100230.97;18395442;32;20093;-69
2022/05/03 14:39:51;;;;;;;5.10;1.85;;;;;;;24.71;30.13;100232.72;18402252;32;20131;-69
2022/05/03 14:49:55;;;;;;;2.75;1.70;;;;;;;24.80;29.62;100226.81;18429208;32;20104;-69
2022/05/03 15:10:21;;;;;;;2.78;1.50;;;;;;;23.97;31.95;100252.34;18425463;32;20124;-68
2022/05/03 15:20:29;;;;;;;2.45;1.42;;;;;;;22.63;34.86;100268.91;18376636;32;20202;-68
2022/05/03 15:30:32;;;;;;;7.28;1.65;;;;;;;21.96;35.79;100267.09;18391869;32;20093;-66
2022/05/03 15:40:37;;;;;;;1.85;1.20;;;;;;;20.90;39.02;100278.44;18428834;32;20108;-66
2022/05/03 15:50:40;;;;;;;1.90;1.48;;;;;;;20.46;36.80;100273.38;18427707;32;20093;-66
2022/05/03 16:00:45;;;;;;;3.87;2.00;;;;;;;19.88;40.83;100286.47;18391682;32;115579;-66
2022/05/03 16:10:48;;;;;;;2.92;1.25;;;;;;;19.82;44.55;100284.97;18393839;32;20105;-65
2022/05/03 16:20:53;;;;;;;3.55;1.67;;;;;;;18.63;48.92;100273.78;18407845;32;20128;-66
2022/05/03 16:30:56;;;;;;;5.25;1.95;;;;;;;18.38;46.72;100270.28;18413808;32;20346;-66
2022/05/03 16:51:22;;;;;;;2.97;1.67;;;;;;;19.92;41.19;100319.00;18424226;32;20089;-66
2022/05/03 17:01:27;;;;;;;2.28;1.50;;;;;;;20.68;38.41;100328.06;18418000;32;20136;-66
2022/05/03 17:11:30;;;;;;;3.35;1.80;;;;;;;20.65;40.97;100342.34;18415050;32;20097;-66
2022/05/03 17:21:35;;;;;;;4.82;2.05;;;;;;;20.66;44.06;100355.53;18418118;32;20097;-67
2022/05/03 17:31:40;;;;;;;3.75;1.95;;;;;;;20.06;47.77;100359.03;18418003;32;20093;-66
2022/05/03 17:41:50;;;;;;;4.00;2.20;;;;;;;20.12;46.39;100355.25;18427359;32;20093;-66
2022/05/03 18:02:27;;;;;;;4.90;2.40;;;;;;;19.23;51.20;100371.19;18168401;32;20177;-66
2022/05/03 18:12:32;;;;;;;5.82;2.53;;;;;;;18.83;51.66;100384.97;18168457;32;20837;-66
2022/05/03 18:22:37;;;;;;;5.35;2.37;;;;;;;18.14;54.52;100401.47;18149761;32;20176;-66
2022/05/03 18:32:40;;;;;;;4.00;2.30;;;;;;;17.87;53.74;100404.97;18250912;32;20457;-66
2022/05/03 18:42:44;;;;;;;4.78;2.40;;;;;;;16.86;58.28;100418.53;18395706;32;20105;-66
2022/05/03 18:52:48;;;;;;;6.65;2.65;;;;;;;16.42;60.30;100428.50;18416542;32;20101;-66
2022/05/03 19:02:52;;;;;;;17.02;5.87;;;;;;;16.30;61.88;100432.31;18415372;32;20101;-66
2022/05/03 19:12:57;;;;;;;18.90;6.57;;;;;;;16.35;61.24;100436.53;18415933;32;20116;-66
2022/05/03 19:23:02;;;;;;;5.70;2.58;;;;;;;16.43;60.80;100428.47;18429192;32;20101;-66
2022/05/03 19:33:06;;;;;;;6.93;3.05;;;;;;;17.09;58.49;100426.72;18414435;32;20108;-66
2022/05/03 19:43:11;;;;;;;7.18;2.97;;;;;;;16.34;61.59;100437.44;18415604;32;20366;-66
2022/05/03 19:53:18;;;;;;;6.78;3.25;;;;;;;16.00;62.69;100451.47;18430379;32;20120;-66
2022/05/03 20:03:22;;;;;;;8.02;3.83;;;;;;;15.56;64.35;100451.56;18415624;32;20172;-66
2022/05/03 20:13:26;;;;;;;7.55;3.35;;;;;;;15.79;64.54;100464.22;18416236;32;20430;-66
2022/05/03 20:23:31;;;;;;;6.00;3.03;;;;;;;15.75;64.45;100464.31;18428286;32;20347;-66
2022/05/03 20:33:36;;;;;;;6.40;3.37;;;;;;;15.99;63.39;100470.81;18415003;32;20112;-66
2022/05/03 20:43:41;;;;;;;6.53;3.78;;;;;;;15.80;63.47;100475.59;18419785;32;20368;-65
2022/05/03 20:53:44;;;;;;;8.20;3.83;;;;;;;15.53;64.96;100485.81;18422612;32;20104;-66
2022/05/03 21:03:49;;;;;;;8.70;3.87;;;;;;;15.40;65.85;100491.34;18435631;32;20093;-65
2022/05/03 21:13:52;;;;;;;11.15;4.43;;;;;;;15.31;66.53;100480.16;18418583;32;20118;-66
2022/05/03 21:23:57;;;;;;;9.02;3.78;;;;;;;15.14;66.91;100486.62;18419928;32;20123;-66
2022/05/03 21:34:00;;;;;;;9.90;3.72;;;;;;;14.83;67.52;100498.59;18419528;32;20428;-65
2022/05/03 21:44:05;;;;;;;8.48;4.10;;;;;;;14.23;68.06;100504.81;18434063;32;20129;-65
2022/05/03 21:54:09;;;;;;;9.57;4.20;;;;;;;13.98;69.19;100516.56;18420496;32;20081;-65
2022/05/03 22:04:13;;;;;;;9.25;3.75;;;;;;;13.11;72.37;100514.13;18429632;32;20107;-67
2022/05/03 22:14:17;;;;;;;9.35;4.87;;;;;;;13.39;71.41;100509.44;18426810;32;20088;-66
2022/05/03 22:24:21;;;;;;;12.02;4.82;;;;;;;13.40;70.01;100518.16;18417575;32;20406;-65
2022/05/03 22:34:24;;;;;;;15.48;6.95;;;;;;;12.35;73.69;100528.78;18432132;32;20093;-65
2022/05/03 22:44:29;;;;;;;41.05;17.33;;;;;;;12.18;74.01;100527.16;18433459;32;20103;-65
2022/05/03 22:54:32;;;;;;;26.73;11.35;;;;;;;12.17;73.21;100520.19;18432905;32;20124;-65
2022/05/03 23:04:37;;;;;;;14.30;6.28;;;;;;;11.80;73.64;100521.25;18431925;32;20125;-65
2022/05/03 23:14:40;;;;;;;18.77;9.15;;;;;;;12.06;72.82;100533.34;18432963;32;20719;-66
2022/05/03 23:24:45;;;;;;;16.30;7.87;;;;;;;12.28;71.50;100535.81;18433602;32;20113;-66
2022/05/03 23:55:32;;;;;;;10.90;4.70;;;;;;;11.77;71.67;100539.59;18431396;32;20406;-65
